Time;durP1;ratioP1;P1;durP2;ratioP2;P2;SDS_P1;SDS_P2;PMS_P1;PMS_P2;Temp;Humidity;BMP_temperature;BMP_pressure;BME280_temperature;BME280_humidity;BME280_pressure;Samples;Min_cycle;Max_cycle;Signal;HPM_P1;HPM_P2
2022/05/23 00:02:05;;;;;;;10.98;5.47;;;;;;;29.09;45.92;98763.59;5074839;28;20036;-81
2022/05/23 00:04:30;;;;;;;6.43;4.45;;;;;;;29.07;45.92;98753.06;5057295;28;20115;-83
2022/05/23 00:06:57;;;;;;;8.48;4.78;;;;;;;29.07;46.03;98749.50;5057137;28;20111;-82
2022/05/23 00:09:24;;;;;;;7.97;5.20;;;;;;;29.05;45.90;98722.00;5057653;28;20062;-83
2022/05/23 00:11:49;;;;;;;7.72;5.20;;;;;;;29.05;45.87;98724.69;5058028;28;20089;-83
2022/05/23 00:14:16;;;;;;;8.27;5.43;;;;;;;29.05;46.09;98713.94;5057846;28;20408;-81
2022/05/23 00:16:46;;;;;;;6.28;4.63;;;;;;;29.03;45.85;98714.09;5057818;28;20029;-83
2022/05/23 00:19:12;;;;;;;8.45;4.88;;;;;;;29.02;45.73;98725.00;5075446;28;20029;-81
2022/05/23 00:21:45;;;;;;;8.68;4.78;;;;;;;28.99;46.09;98710.03;5058799;28;20024;-82
2022/05/23 00:24:13;;;;;;;8.52;5.00;;;;;;;28.97;45.95;98698.63;5058916;28;20021;-84
2022/05/23 00:26:39;;;;;;;8.02;4.70;;;;;;;28.98;45.63;98710.19;5059349;28;20507;-83
2022/05/23 00:29:05;;;;;;;7.20;4.22;;;;;;;28.96;45.73;98698.78;5082618;28;20354;-83
2022/05/23 00:31:31;;;;;;;7.85;5.47;;;;;;;28.94;46.08;98698.94;5064792;28;20047;-84
2022/05/23 00:36:40;;;;;;;7.60;4.93;;;;;;;28.93;45.69;98681.16;5080433;28;20055;-84
2022/05/23 00:39:06;;;;;;;7.40;4.55;;;;;;;28.93;45.96;98684.72;5063272;28;20111;-85
2022/05/23 00:44:24;;;;;;;7.32;5.28;;;;;;;28.89;46.18;98717.41;5078420;28;20036;-81
2022/05/23 00:46:56;;;;;;;7.15;4.80;;;;;;;28.89;45.88;98714.72;5060281;28;20470;-82
2022/05/23 00:49:28;;;;;;;7.55;4.55;;;;;;;28.87;46.03;98709.53;5060452;28;20048;-83
2022/05/23 00:51:56;;;;;;;7.20;4.50;;;;;;;28.86;46.06;98702.44;5078771;28;20039;-84
2022/05/23 00:54:23;;;;;;;6.15;4.57;;;;;;;28.85;46.08;98724.91;5088587;28;20031;-85
2022/05/23 00:56:52;;;;;;;7.72;4.75;;;;;;;28.84;46.04;98755.44;5068514;28;20070;-84
2022/05/23 00:59:28;;;;;;;8.43;4.88;;;;;;;28.86;46.17;98748.09;5080637;28;20021;-83
2022/05/23 01:01:54;;;;;;;7.22;4.93;;;;;;;28.83;45.90;98769.88;5062865;28;20177;-83
2022/05/23 01:04:20;;;;;;;8.10;4.50;;;;;;;28.82;46.00;98805.78;5062297;28;20082;-83
2022/05/23 01:06:45;;;;;;;6.53;4.80;;;;;;;28.79;45.83;98827.59;5060313;28;20039;-83
2022/05/23 01:09:11;;;;;;;7.68;4.80;;;;;;;28.80;45.81;98840.00;5062253;28;20531;-82
2022/05/23 01:11:38;;;;;;;6.65;4.57;;;;;;;28.79;45.79;98854.44;5060148;28;20366;-83
2022/05/23 01:14:05;;;;;;;7.72;4.90;;;;;;;28.78;45.67;98844.69;5060293;28;20027;-84
2022/05/23 01:16:30;;;;;;;6.95;4.45;;;;;;;28.79;45.87;98832.94;5077626;28;20016;-83
2022/05/23 01:18:56;;;;;;;9.55;5.18;;;;;;;28.77;45.74;98743.69;5059822;28;20036;-83
2022/05/23 01:21:44;;;;;;;8.10;4.90;;;;;;;28.76;45.54;98548.75;5059945;28;20056;-81
2022/05/23 01:24:11;;;;;;;8.20;4.63;;;;;;;28.74;45.54;98491.69;5059838;28;20032;-81
2022/05/23 01:26:37;;;;;;;7.47;5.00;;;;;;;28.73;45.78;98527.59;5060253;28;20446;-81
2022/05/23 01:29:10;;;;;;;7.03;4.63;;;;;;;28.71;46.05;98607.44;5077331;28;20025;-81
2022/05/23 01:31:36;;;;;;;8.35;4.60;;;;;;;28.70;45.87;98651.41;5059522;28;20458;-81
2022/05/23 01:34:01;;;;;;;6.97;4.55;;;;;;;28.67;45.91;98674.88;5059642;28;20028;-83
2022/05/23 01:36:27;;;;;;;6.75;4.20;;;;;;;28.68;46.10;98697.19;5059771;28;20032;-82
2022/05/23 01:38:52;;;;;;;7.35;4.43;;;;;;;28.67;46.31;98698.19;5076503;28;20032;-82
2022/05/23 01:41:18;;;;;;;6.32;4.25;;;;;;;28.64;45.93;98707.41;5077291;28;20030;-83
2022/05/23 01:43:43;;;;;;;7.32;4.70;;;;;;;28.64;46.27;98742.31;5059636;28;20024;-81
2022/05/23 01:46:09;;;;;;;9.95;4.75;;;;;;;28.63;46.13;98754.06;5059384;28;20056;-83
2022/05/23 01:48:35;;;;;;;7.65;4.60;;;;;;;28.63;46.27;98762.09;5061292;28;20021;-81
2022/05/23 01:51:00;;;;;;;6.38;4.40;;;;;;;28.62;46.22;98752.34;5059669;28;20024;-81
2022/05/23 01:53:26;;;;;;;7.10;4.53;;;;;;;28.62;46.17;98749.66;5059408;28;20028;-81
2022/05/23 01:55:52;;;;;;;5.97;3.95;;;;;;;28.60;46.15;98756.19;5059388;28;20031;-82
2022/05/23 02:01:12;;;;;;;6.43;4.00;;;;;;;28.59;46.25;98751.81;5076690;28;20025;-81
2022/05/23 02:01:12;;;;;;;7.47;4.38;;;;;;;28.59;45.96;98752.69;5059262;28;20362;-81
2022/05/23 02:03:38;;;;;;;7.10;4.20;;;;;;;28.58;46.04;98756.38;5059245;28;20024;-83
2022/05/23 02:06:04;;;;;;;7.55;4.60;;;;;;;28.57;46.06;98765.41;5059502;28;20185;-82
2022/05/23 02:08:29;;;;;;;7.35;4.20;;;;;;;28.56;46.40;98744.94;5077712;28;20016;-82
2022/05/23 02:10:55;;;;;;;8.63;4.75;;;;;;;28.54;46.31;98734.38;5060184;28;20029;-83
2022/05/23 02:13:20;;;;;;;8.60;5.22;;;;;;;28.54;46.28;98733.53;5061030;28;20055;-85
2022/05/23 02:15:46;;;;;;;6.03;3.90;;;;;;;28.53;46.24;98730.00;5060184;28;20031;-82
2022/05/23 02:18:11;;;;;;;6.68;3.90;;;;;;;28.53;46.17;98742.59;5061768;28;20032;-83
2022/05/23 02:20:37;;;;;;;8.68;4.18;;;;;;;28.53;46.41;98758.69;5061889;28;20366;-83
2022/05/23 02:23:03;;;;;;;7.07;3.97;;;;;;;28.50;46.13;98751.81;5076866;28;20354;-83
2022/05/23 02:25:28;;;;;;;6.68;4.10;;;;;;;28.50;46.06;98718.75;5058714;28;20103;-82
2022/05/23 02:27:54;;;;;;;6.22;3.97;;;;;;;28.51;46.43;98707.00;5060603;28;20020;-83
2022/05/23 02:30:20;;;;;;;7.20;4.20;;;;;;;28.51;46.29;98723.09;5076314;28;20085;-81
2022/05/23 02:32:46;;;;;;;7.00;3.67;;;;;;;28.48;46.29;98701.97;5059131;28;20021;-82
2022/05/23 02:35:13;;;;;;;8.35;4.20;;;;;;;28.46;46.42;98706.69;5077597;28;20031;-83
2022/05/23 02:37:39;;;;;;;5.32;3.78;;;;;;;28.46;46.39;98720.91;5077739;28;20020;-83
2022/05/23 02:40:06;;;;;;;6.32;3.78;;;;;;;28.46;46.38;98709.34;5059730;28;20074;-80
2022/05/23 02:42:31;;;;;;;6.95;3.80;;;;;;;28.45;46.52;98702.28;5077399;28;20021;-82
2022/05/23 02:44:57;;;;;;;6.88;3.88;;;;;;;28.43;46.35;98693.56;5059884;28;20066;-81
2022/05/23 02:47:22;;;;;;;6.22;3.70;;;;;;;28.41;46.20;98705.31;5078224;28;20386;-84
2022/05/23 02:49:48;;;;;;;5.13;3.33;;;;;;;28.40;46.43;98700.94;5060478;28;20025;-83
2022/05/23 02:52:14;;;;;;;5.35;3.40;;;;;;;28.38;46.04;98702.94;5062849;28;20012;-85
2022/05/23 02:54:39;;;;;;;5.43;3.63;;;;;;;28.39;46.37;98693.88;5061666;28;20450;-82
2022/05/23 02:57:06;;;;;;;6.57;3.35;;;;;;;28.37;46.47;98690.53;5076299;28;20093;-81
2022/05/23 02:59:31;;;;;;;5.10;3.60;;;;;;;28.37;46.27;98689.69;5058066;28;20454;-82
2022/05/23 03:04:43;;;;;;;5.07;3.15;;;;;;;28.35;46.45;98705.09;5075871;28;20027;-81
2022/05/23 03:07:09;;;;;;;6.40;3.13;;;;;;;28.35;46.35;98713.16;5059983;28;20029;-81
2022/05/23 03:09:34;;;;;;;5.43;3.35;;;;;;;28.33;46.37;98715.16;5058163;28;20047;-83
2022/05/23 03:12:00;;;;;;;6.50;3.38;;;;;;;28.31;46.23;98723.38;5058187;28;20047;-81
2022/05/23 03:14:27;;;;;;;6.10;3.17;;;;;;;28.30;46.24;98716.31;5058167;28;20021;-82
2022/05/23 03:16:53;;;;;;;6.20;3.47;;;;;;;28.29;46.14;98717.31;5077158;28;20024;-81
2022/05/23 03:19:19;;;;;;;6.30;3.33;;;;;;;28.28;46.41;98729.06;5057817;28;20127;-81
2022/05/23 03:27:13;;;;;;;5.40;3.13;;;;;;;28.27;46.27;98724.66;5075089;28;20115;-83
2022/05/23 03:29:39;;;;;;;6.47;3.70;;;;;;;28.27;46.30;98722.00;5058228;28;20103;-80
2022/05/23 03:32:05;;;;;;;4.95;3.03;;;;;;;28.26;46.10;98726.53;5058831;28;20024;-82
2022/05/23 03:34:30;;;;;;;5.10;3.05;;;;;;;28.24;46.19;98719.63;5059708;28;20029;-80
2022/05/23 03:36:56;;;;;;;4.28;2.65;;;;;;;28.22;46.47;98714.44;5061587;28;20025;-83
2022/05/23 03:39:21;;;;;;;5.25;3.13;;;;;;;28.21;46.42;98717.22;5076274;28;20408;-82
2022/05/23 03:41:51;;;;;;;5.13;3.00;;;;;;;28.20;46.45;98720.91;5077152;28;20039;-82
2022/05/23 03:44:17;;;;;;;5.75;2.80;;;;;;;28.20;46.21;98727.13;5078618;28;20040;-82
2022/05/23 03:46:42;;;;;;;4.15;2.88;;;;;;;28.19;46.28;98717.41;5060310;28;20052;-83
2022/05/23 03:49:08;;;;;;;4.35;2.47;;;;;;;28.18;46.59;98707.66;5057199;28;20366;-81
2022/05/23 03:51:34;;;;;;;5.13;2.90;;;;;;;28.17;46.32;98715.88;5057284;28;20032;-81
2022/05/23 03:54:00;;;;;;;5.90;2.70;;;;;;;28.15;46.55;98714.19;5057493;28;20061;-83
2022/05/23 03:56:26;;;;;;;4.03;2.70;;;;;;;28.14;46.40;98712.50;5057199;28;20425;-82
2022/05/23 03:58:51;;;;;;;4.50;2.67;;;;;;;28.15;46.55;98729.44;5074553;28;20020;-81
2022/05/23 04:01:21;;;;;;;4.68;2.40;;;;;;;28.13;46.51;98726.91;5074336;28;20103;-80
2022/05/23 04:03:47;;;;;;;4.97;2.83;;;;;;;28.12;46.25;98730.59;5057240;28;20060;-83
2022/05/23 04:06:13;;;;;;;4.78;2.47;;;;;;;28.11;46.37;98723.56;5056864;28;20084;-81
2022/05/23 04:08:39;;;;;;;4.53;2.40;;;;;;;28.09;46.55;98733.59;5057192;28;20446;-81
2022/05/23 04:11:05;;;;;;;4.35;2.53;;;;;;;28.10;46.59;98732.63;5057495;28;20035;-82
2022/05/23 04:13:31;;;;;;;4.32;2.47;;;;;;;28.08;46.31;98734.59;5074699;28;20030;-81
2022/05/23 04:15:56;;;;;;;3.72;2.17;;;;;;;28.07;46.35;98743.66;5057443;28;20454;-83
2022/05/23 04:18:22;;;;;;;5.90;2.20;;;;;;;28.07;46.59;98737.44;5057277;28;20024;-82
2022/05/23 04:20:48;;;;;;;5.78;2.50;;;;;;;28.06;46.73;98736.59;5057104;28;20032;-81
2022/05/23 04:23:14;;;;;;;6.70;2.42;;;;;;;28.05;46.33;98734.94;5074570;28;20080;-83
2022/05/23 04:25:44;;;;;;;3.63;2.30;;;;;;;28.05;46.69;98732.25;5058816;28;20024;-82
2022/05/23 04:28:12;;;;;;;4.40;2.40;;;;;;;28.03;46.54;98726.19;5056812;28;20181;-82
2022/05/23 04:30:38;;;;;;;4.32;2.47;;;;;;;28.03;46.56;98736.91;5074836;28;20025;-81
2022/05/23 04:35:50;;;;;;;4.20;2.47;;;;;;;28.01;46.52;98738.91;5075322;28;20104;-84
2022/05/23 04:38:17;;;;;;;3.70;2.15;;;;;;;27.99;46.28;98741.75;5057649;28;20036;-82
2022/05/23 04:40:43;;;;;;;4.22;2.15;;;;;;;27.99;46.53;98746.28;5075685;28;20021;-81
2022/05/23 04:43:09;;;;;;;3.72;2.30;;;;;;;27.97;46.37;98741.06;5057257;28;20118;-82
2022/05/23 04:45:34;;;;;;;5.93;2.92;;;;;;;27.97;46.48;98748.25;5074893;28;20063;-81
2022/05/23 04:50:44;;;;;;;4.22;2.22;;;;;;;27.95;46.67;98758.31;5077960;28;20043;-82
2022/05/23 04:53:09;;;;;;;3.47;2.10;;;;;;;27.94;46.29;98751.28;5059038;28;20016;-84
2022/05/23 04:55:37;;;;;;;3.85;2.00;;;;;;;27.93;46.85;98752.28;5077591;28;20048;-83
2022/05/23 04:58:03;;;;;;;3.30;2.15;;;;;;;27.91;46.38;98757.78;5058905;28;20017;-81
2022/05/23 05:00:29;;;;;;;4.30;2.30;;;;;;;27.91;46.77;98755.09;5077379;28;20052;-83
2022/05/23 05:02:59;;;;;;;4.82;2.70;;;;;;;27.91;46.46;98762.28;5078056;28;20035;-82
2022/05/23 05:05:25;;;;;;;3.75;2.03;;;;;;;27.89;46.70;98762.44;5060560;28;20055;-85
2022/05/23 05:07:52;;;;;;;3.92;2.10;;;;;;;27.90;46.29;98763.28;5079161;28;20056;-85
2022/05/23 05:10:18;;;;;;;3.95;2.20;;;;;;;27.88;46.35;98772.34;5061720;28;20020;-85
2022/05/23 05:12:44;;;;;;;4.43;2.20;;;;;;;27.87;46.61;98780.53;5079033;28;20024;-83
2022/05/23 05:15:10;;;;;;;4.72;2.08;;;;;;;27.87;46.50;98781.38;5059603;28;20035;-82
2022/05/23 05:17:36;;;;;;;4.72;2.30;;;;;;;27.84;46.66;98787.03;5060024;28;20369;-82
2022/05/23 05:20:02;;;;;;;4.47;2.47;;;;;;;27.86;46.34;98782.38;5060366;28;20016;-81
2022/05/23 05:22:28;;;;;;;3.45;2.15;;;;;;;27.84;46.32;98788.91;5060784;28;20020;-81
2022/05/23 05:24:54;;;;;;;3.28;2.00;;;;;;;27.84;46.59;98778.19;5082172;28;20078;-80
2022/05/23 05:27:19;;;;;;;3.38;2.10;;;;;;;27.82;46.54;98778.31;5059914;28;20025;-80
2022/05/23 05:29:45;;;;;;;4.55;2.03;;;;;;;27.83;46.58;98774.66;5059823;28;20128;-82
2022/05/23 05:32:18;;;;;;;3.80;2.15;;;;;;;27.83;46.25;98779.16;5059955;28;20017;-81
2022/05/23 05:35:11;;;;;;;4.47;2.15;;;;;;;27.82;46.31;98783.69;5059962;28;20462;-85
2022/05/23 05:37:45;;;;;;;4.13;1.95;;;;;;;27.79;46.54;98778.63;5059361;28;20028;-85
2022/05/23 05:40:14;;;;;;;4.55;2.10;;;;;;;27.81;46.26;98782.00;5059448;28;20133;-84
2022/05/23 05:42:44;;;;;;;4.55;2.60;;;;;;;27.83;46.30;98782.69;5062474;28;20603;-81
2022/05/23 05:45:14;;;;;;;4.57;2.22;;;;;;;27.82;46.06;98783.69;5059600;28;20024;-81
2022/05/23 05:47:44;;;;;;;4.47;2.25;;;;;;;27.79;46.33;98778.63;5059017;28;20048;-80
2022/05/23 05:50:14;;;;;;;4.60;2.30;;;;;;;27.79;46.24;98788.53;5059442;28;20181;-80
2022/05/23 05:52:40;;;;;;;3.25;1.90;;;;;;;27.79;46.16;98791.19;5059437;28;20020;-81
2022/05/23 05:55:07;;;;;;;4.70;2.38;;;;;;;27.76;46.50;98783.47;5059604;28;20020;-83
2022/05/23 05:57:33;;;;;;;4.63;2.28;;;;;;;27.77;46.36;98779.78;5076966;28;20029;-83
2022/05/23 05:59:59;;;;;;;4.72;2.25;;;;;;;27.78;46.15;98784.16;5059264;28;20026;-83
2022/05/23 06:02:25;;;;;;;4.47;2.35;;;;;;;27.75;46.48;98790.66;5059328;28;20028;-81
2022/05/23 06:04:50;;;;;;;4.32;2.00;;;;;;;27.73;46.41;98789.97;5077401;28;20580;-81
2022/05/23 06:12:56;;;;;;;4.32;2.15;;;;;;;27.72;46.56;98799.00;5078272;28;20058;-82
2022/05/23 06:15:22;;;;;;;4.70;1.95;;;;;;;27.71;46.16;98791.97;5060669;28;20090;-84
2022/05/23 06:17:48;;;;;;;5.68;2.40;;;;;;;27.73;46.33;98795.31;5076667;28;20450;-81
2022/05/23 06:20:15;;;;;;;4.18;2.35;;;;;;;27.74;46.00;98802.38;5060883;28;20055;-83
2022/05/23 06:22:41;;;;;;;4.13;2.30;;;;;;;27.71;46.42;98802.69;5059053;28;20029;-83
2022/05/23 06:25:08;;;;;;;5.22;2.22;;;;;;;27.73;46.19;98800.69;5059741;28;20438;-82
2022/05/23 06:27:34;;;;;;;4.95;2.10;;;;;;;27.69;46.35;98794.78;5077585;28;20104;-81
2022/05/23 06:29:59;;;;;;;4.70;2.30;;;;;;;27.70;46.05;98801.00;5062586;28;20056;-81
2022/05/23 06:32:25;;;;;;;4.97;2.40;;;;;;;27.66;46.50;98807.66;5064099;28;20047;-82
2022/05/23 06:34:51;;;;;;;4.40;1.95;;;;;;;27.68;46.03;98806.50;5063923;28;20027;-81
2022/05/23 06:37:17;;;;;;;5.22;2.55;;;;;;;27.67;46.27;98809.34;5081802;28;20028;-80
2022/05/23 06:39:42;;;;;;;4.32;1.85;;;;;;;27.68;46.25;98803.84;5061783;28;20109;-83
2022/05/23 06:42:08;;;;;;;4.70;1.90;;;;;;;27.65;46.17;98809.50;5076411;28;20431;-82
2022/05/23 06:44:34;;;;;;;5.25;2.33;;;;;;;27.66;46.11;98804.97;5061414;28;20043;-82
2022/05/23 06:47:00;;;;;;;3.53;1.98;;;;;;;27.70;45.95;98803.69;5060788;28;20485;-82
2022/05/23 06:49:26;;;;;;;5.03;2.22;;;;;;;27.64;46.11;98799.78;5076369;28;20027;-81
2022/05/23 06:51:52;;;;;;;4.95;2.53;;;;;;;27.66;46.04;98799.63;5076070;28;20028;-82
2022/05/23 06:54:19;;;;;;;3.83;2.10;;;;;;;27.66;45.94;98807.66;5058417;28;20036;-83
2022/05/23 06:56:46;;;;;;;4.22;2.00;;;;;;;27.65;46.20;98803.31;5077681;28;20043;-81
2022/05/23 06:59:12;;;;;;;3.72;1.90;;;;;;;27.66;46.22;98804.97;5059370;28;20518;-83
2022/05/23 07:01:38;;;;;;;4.43;2.30;;;;;;;27.61;46.00;98803.59;5059350;28;20054;-84
2022/05/23 07:04:04;;;;;;;3.95;1.90;;;;;;;27.64;46.17;98807.81;5077740;28;20058;-84
2022/05/23 07:14:41;;;;;;;4.75;2.10;;;;;;;27.60;46.10;98806.47;5078041;28;20040;-83
2022/05/23 07:17:07;;;;;;;4.05;1.90;;;;;;;27.60;46.31;98801.09;5059122;28;20370;-83
2022/05/23 07:19:35;;;;;;;4.20;2.08;;;;;;;27.60;45.91;98812.63;5062053;28;20370;-84
2022/05/23 07:22:02;;;;;;;3.55;1.80;;;;;;;27.58;46.05;98797.72;5063937;28;20024;-85
2022/05/23 07:24:28;;;;;;;4.20;2.00;;;;;;;27.57;45.99;98807.56;5082330;28;20115;-85
2022/05/23 07:26:55;;;;;;;4.25;1.77;;;;;;;27.58;45.97;98803.06;5063397;28;20021;-84
2022/05/23 07:29:24;;;;;;;3.78;1.88;;;;;;;27.57;45.90;98802.22;5076768;28;20024;-82
2022/05/23 07:31:51;;;;;;;4.97;2.03;;;;;;;27.58;46.16;98809.28;5058119;28;20024;-82
2022/05/23 07:34:17;;;;;;;3.50;2.10;;;;;;;27.57;45.88;98807.56;5059758;28;20035;-81
2022/05/23 07:36:44;;;;;;;6.00;1.95;;;;;;;27.56;46.00;98813.06;5075040;28;20028;-82
2022/05/23 07:39:12;;;;;;;4.50;2.38;;;;;;;27.57;46.11;98812.94;5074911;28;20086;-81
2022/05/23 07:41:39;;;;;;;3.70;1.55;;;;;;;27.58;46.13;98819.16;5057467;28;20028;-81
2022/05/23 07:44:10;;;;;;;4.38;2.03;;;;;;;27.56;46.13;98811.22;5075156;28;20036;-81
2022/05/23 07:46:37;;;;;;;4.18;1.65;;;;;;;27.54;46.00;98818.56;5057647;28;20425;-83
2022/05/23 07:49:04;;;;;;;5.15;2.05;;;;;;;27.53;46.26;98816.91;5059828;28;20351;-82
2022/05/23 07:51:32;;;;;;;4.88;2.00;;;;;;;27.53;45.97;98822.25;5057658;28;20343;-82
2022/05/23 08:02:15;;;;;;;4.13;1.85;;;;;;;27.52;46.16;98817.91;5080364;28;20066;-83
2022/05/23 08:04:42;;;;;;;4.90;1.92;;;;;;;27.51;46.09;98818.91;5077524;28;20028;-82
2022/05/23 08:07:09;;;;;;;3.80;1.80;;;;;;;27.50;45.87;98824.41;5076156;28;20032;-83
2022/05/23 08:09:36;;;;;;;6.07;2.08;;;;;;;27.51;46.04;98813.53;5074815;28;20155;-85
2022/05/23 08:12:04;;;;;;;4.55;2.00;;;;;;;27.49;45.86;98831.59;5059078;28;20032;-84
2022/05/23 08:14:30;;;;;;;3.83;1.95;;;;;;;27.52;45.96;98825.94;5057322;28;20028;-83
2022/05/23 08:16:57;;;;;;;4.97;2.25;;;;;;;27.50;45.80;98832.44;5057200;28;20048;-82
2022/05/23 08:19:23;;;;;;;3.83;1.85;;;;;;;27.48;46.01;98822.72;5058797;28;20123;-82
2022/05/23 08:21:55;;;;;;;4.15;1.73;;;;;;;27.49;46.12;98826.22;5058729;28;20052;-83
2022/05/23 08:24:20;;;;;;;4.78;1.95;;;;;;;27.50;46.27;98827.91;5074883;28;20162;-83
2022/05/23 08:26:46;;;;;;;3.10;1.83;;;;;;;27.48;46.18;98829.91;5074676;28;20063;-82
2022/05/23 08:29:12;;;;;;;3.88;1.77;;;;;;;27.48;45.98;98829.91;5056831;28;20021;-81
2022/05/23 08:31:38;;;;;;;4.88;1.85;;;;;;;27.47;46.07;98834.41;5075117;28;20035;-83
2022/05/23 08:34:04;;;;;;;4.50;1.88;;;;;;;27.46;46.05;98826.53;5057054;28;20024;-83
2022/05/23 08:36:30;;;;;;;2.72;1.58;;;;;;;27.46;46.00;98823.88;5056802;28;20040;-84
2022/05/23 08:38:56;;;;;;;4.63;1.77;;;;;;;27.47;46.23;98822.88;5057799;28;20093;-81
2022/05/23 08:41:28;;;;;;;3.65;2.22;;;;;;;27.44;46.31;98825.84;5056588;28;20061;-82
2022/05/23 08:44:15;;;;;;;3.50;1.75;;;;;;;27.46;45.92;98827.38;5056223;28;20028;-82
2022/05/23 08:46:46;;;;;;;3.50;1.77;;;;;;;27.44;46.06;98833.88;5074529;28;20076;-81
2022/05/23 08:49:28;;;;;;;3.70;2.08;;;;;;;27.42;46.19;98826.00;5061974;28;20094;-82
2022/05/23 08:52:13;;;;;;;4.45;1.60;;;;;;;27.43;46.21;98824.16;5062127;28;20020;-82
2022/05/23 08:54:54;;;;;;;4.18;1.80;;;;;;;27.48;46.17;98824.53;5060565;28;20131;-83
2022/05/23 08:57:52;;;;;;;4.40;1.65;;;;;;;27.44;45.88;98829.38;5060145;28;20067;-81
2022/05/23 09:00:26;;;;;;;3.35;1.48;;;;;;;27.42;45.95;98827.84;5018580;28;20036;-81
2022/05/23 09:03:02;;;;;;;4.07;1.75;;;;;;;27.43;46.20;98822.34;5078384;28;20040;-82
2022/05/23 09:05:33;;;;;;;5.00;1.90;;;;;;;27.41;46.15;98824.31;5078077;28;20028;-82
2022/05/23 09:08:03;;;;;;;4.63;1.90;;;;;;;27.42;45.91;98827.84;5060074;28;20054;-82
2022/05/23 09:10:40;;;;;;;4.53;1.75;;;;;;;27.42;45.82;98826.00;5060131;28;20020;-82
2022/05/23 09:13:07;;;;;;;2.72;1.50;;;;;;;27.41;46.18;98834.19;5059972;28;20091;-83
2022/05/23 09:15:33;;;;;;;3.40;1.60;;;;;;;27.41;45.97;98831.50;5077928;28;20366;-82
2022/05/23 09:18:04;;;;;;;3.92;1.48;;;;;;;27.40;46.03;98836.00;5060087;28;20035;-83
2022/05/23 09:20:49;;;;;;;3.85;1.40;;;;;;;27.41;46.32;98834.19;5079203;28;20485;-84
2022/05/23 09:23:26;;;;;;;4.43;1.60;;;;;;;27.40;46.32;98837.88;5063556;28;20058;-82
2022/05/23 09:25:53;;;;;;;3.65;1.55;;;;;;;27.40;45.97;98837.88;5084148;28;20146;-85
2022/05/23 09:28:28;;;;;;;4.90;1.80;;;;;;;27.37;46.22;98836.34;5064717;28;20033;-84
2022/05/23 09:31:00;;;;;;;4.00;1.60;;;;;;;27.37;46.05;98843.50;5080832;28;20028;-82
2022/05/23 09:33:29;;;;;;;3.67;1.48;;;;;;;27.36;46.14;98844.50;5062450;28;20043;-83
2022/05/23 09:36:09;;;;;;;5.03;1.73;;;;;;;27.36;46.08;98848.03;5061805;28;20361;-84
2022/05/23 09:38:53;;;;;;;3.88;1.83;;;;;;;27.36;46.13;98836.47;5080748;28;20054;-84
2022/05/23 09:47:44;;;;;;;3.03;1.45;;;;;;;27.36;46.17;98837.34;5081186;28;20083;-84
2022/05/23 09:49:46;;;;;;;3.35;1.70;;;;;;;27.39;45.73;98841.50;5077614;28;20098;-81
2022/05/23 09:52:25;;;;;;;3.58;1.52;;;;;;;27.42;46.05;98846.59;5077445;28;20024;-82
2022/05/23 09:55:00;;;;;;;4.43;1.42;;;;;;;27.41;45.77;98840.38;5060684;28;20115;-81
2022/05/23 09:57:29;;;;;;;2.92;1.30;;;;;;;27.42;45.70;98830.50;5077813;28;20036;-81
2022/05/23 10:00:17;;;;;;;2.97;1.65;;;;;;;27.40;45.72;98832.50;5058612;28;20029;-83
2022/05/23 10:02:51;;;;;;;3.25;1.33;;;;;;;27.38;45.92;98834.47;5045310;28;20067;-82
2022/05/23 10:05:46;;;;;;;3.75;1.60;;;;;;;27.39;46.01;98833.47;5059587;28;20028;-82
2022/05/23 10:08:28;;;;;;;4.40;1.50;;;;;;;27.38;45.98;98831.81;5056676;28;20378;-81
2022/05/23 10:10:59;;;;;;;2.88;1.52;;;;;;;27.40;45.80;98832.50;5058772;28;20111;-81
2022/05/23 10:13:35;;;;;;;3.17;1.40;;;;;;;27.42;45.67;98830.50;5059167;28;20060;-82
2022/05/23 10:16:11;;;;;;;;;;;;;;;27.43;45.79;98832.19;5059352;28;20024;-81
2022/05/23 10:18:46;;;;;;;3.33;1.38;;;;;;;27.45;45.77;98831.06;5058871;28;19912;-81
2022/05/23 10:21:22;;;;;;;3.38;1.30;;;;;;;27.47;46.05;98829.06;5058999;28;20024;-83
2022/05/23 10:24:11;;;;;;;4.10;1.60;;;;;;;27.49;45.57;98831.59;5076817;28;20032;-82
2022/05/23 10:26:50;;;;;;;4.32;1.63;;;;;;;27.47;45.51;98836.25;5077440;28;20029;-82
2022/05/23 10:29:27;;;;;;;3.40;1.30;;;;;;;27.45;45.82;98830.22;5059060;28;20031;-81
2022/05/23 10:32:06;;;;;;;3.22;1.50;;;;;;;27.46;45.57;98837.25;5058943;28;20074;-83
2022/05/23 10:34:43;;;;;;;3.88;1.30;;;;;;;27.42;45.96;98839.41;5058522;28;20037;-82
2022/05/23 10:37:28;;;;;;;4.00;1.73;;;;;;;27.43;45.63;98842.91;5058283;28;20093;-82
2022/05/23 10:43:06;;;;;;;3.40;1.42;;;;;;;27.41;45.58;98834.19;5076391;28;20116;-82
2022/05/23 10:45:52;;;;;;;3.38;1.50;;;;;;;27.42;45.46;98839.41;5059076;28;20060;-84
2022/05/23 10:48:41;;;;;;;3.00;1.30;;;;;;;27.40;45.47;98837.88;5077795;28;20033;-82
2022/05/23 10:51:37;;;;;;;2.88;1.33;;;;;;;27.37;45.55;98839.00;5059682;28;20029;-81
2022/05/23 10:54:27;;;;;;;2.58;1.40;;;;;;;27.38;45.44;98842.50;5059939;28;20039;-84
2022/05/23 10:57:11;;;;;;;2.10;1.10;;;;;;;27.38;45.68;98838.00;5060153;28;20032;-81
2022/05/23 11:00:12;;;;;;;3.90;1.35;;;;;;;27.36;45.45;98836.47;5060558;28;20040;-82
2022/05/23 11:02:37;;;;;;;2.97;1.40;;;;;;;27.36;45.71;98839.16;5060260;28;20043;-82
2022/05/23 11:05:28;;;;;;;2.38;1.23;;;;;;;27.36;45.55;98831.13;5059799;28;20366;-81
2022/05/23 11:08:31;;;;;;;3.38;1.25;;;;;;;27.33;45.77;98838.47;5075859;28;20362;-81
2022/05/23 11:11:08;;;;;;;3.92;1.38;;;;;;;27.32;45.78;98831.41;5057254;28;20433;-81
2022/05/23 11:13:49;;;;;;;2.85;1.33;;;;;;;27.30;45.52;98849.47;5057806;28;20504;-80
2022/05/23 11:16:42;;;;;;;3.50;1.45;;;;;;;27.32;45.48;98847.47;5057649;28;20070;-82
2022/05/23 11:19:24;;;;;;;4.07;1.42;;;;;;;27.31;45.64;98845.78;5077247;28;20032;-80
2022/05/23 11:21:53;;;;;;;3.42;1.38;;;;;;;27.32;45.34;98838.63;5057886;28;20028;-82
2022/05/23 11:24:28;;;;;;;2.67;1.10;;;;;;;27.32;45.45;98843.97;5075772;28;20142;-83
2022/05/23 11:33:41;;;;;;;3.88;1.67;;;;;;;27.32;45.27;98833.25;5075555;28;20430;-83
2022/05/23 11:35:23;;;;;;;4.60;1.38;;;;;;;27.29;45.28;98842.44;5079379;28;20531;-81
2022/05/23 11:37:49;;;;;;;2.97;1.20;;;;;;;27.31;45.49;98840.44;5082981;28;20025;-81
2022/05/23 11:40:30;;;;;;;3.90;1.45;;;;;;;27.29;45.55;98847.78;5063879;28;20021;-82
2022/05/23 11:43:07;;;;;;;3.08;1.45;;;;;;;27.28;45.68;98834.53;5069353;28;20032;-82
2022/05/23 11:45:59;;;;;;;2.72;1.20;;;;;;;27.28;45.37;98837.22;5063881;28;20016;-83
2022/05/23 11:48:52;;;;;;;3.83;1.35;;;;;;;27.29;45.43;98834.41;5069205;28;20036;-82
2022/05/23 11:51:27;;;;;;;2.45;1.25;;;;;;;27.29;45.65;98823.69;5067190;28;20027;-83
2022/05/23 11:54:09;;;;;;;3.50;1.38;;;;;;;27.29;45.20;98826.38;5066848;28;20067;-83
2022/05/23 11:56:44;;;;;;;3.15;1.17;;;;;;;27.30;45.28;98827.19;5080313;28;20115;-84
2022/05/23 11:59:29;;;;;;;3.30;1.17;;;;;;;27.29;45.59;98830.88;5064540;28;20031;-84
2022/05/23 12:02:07;;;;;;;2.97;1.05;;;;;;;27.28;45.71;98819.31;5070682;28;20035;-83
2022/05/23 12:04:54;;;;;;;4.22;1.48;;;;;;;27.29;45.48;98818.34;5068251;28;20058;-82
2022/05/23 12:07:39;;;;;;;3.60;1.48;;;;;;;27.29;45.46;98829.03;5050881;28;20035;-83
2022/05/23 12:10:24;;;;;;;4.05;1.33;;;;;;;27.28;45.67;98827.38;5061287;28;20024;-85
2022/05/23 12:13:20;;;;;;;5.07;1.65;;;;;;;27.28;45.56;98819.31;5061545;28;20170;-83
2022/05/23 12:15:53;;;;;;;3.70;1.40;;;;;;;27.28;45.41;98819.31;5061593;28;20024;-82
2022/05/23 12:18:21;;;;;;;3.63;1.30;;;;;;;27.28;45.66;98818.47;5061630;28;20119;-82
2022/05/23 12:20:49;;;;;;;2.85;1.20;;;;;;;27.28;45.42;98819.31;5078732;28;20036;-83
2022/05/23 12:23:33;;;;;;;2.83;1.30;;;;;;;27.27;45.44;98809.63;5082901;28;20385;-83
2022/05/23 12:26:10;;;;;;;3.10;1.20;;;;;;;27.27;45.63;98817.66;5086896;28;20081;-82
2022/05/23 12:28:59;;;;;;;3.90;1.40;;;;;;;27.28;45.59;98819.31;5068911;28;20039;-82
2022/05/23 12:31:27;;;;;;;3.42;1.45;;;;;;;27.29;45.50;98814.78;5086653;28;20028;-82
2022/05/23 12:34:02;;;;;;;4.57;1.73;;;;;;;27.29;45.65;98807.63;5070538;28;20025;-85
2022/05/23 12:36:30;;;;;;;4.63;1.67;;;;;;;27.27;45.37;98812.28;5090015;28;20024;-83
2022/05/23 12:39:17;;;;;;;4.80;1.30;;;;;;;27.28;45.56;98808.63;5089701;28;20038;-80
2022/05/23 12:42:04;;;;;;;3.28;1.42;;;;;;;27.28;45.30;98819.31;5068864;28;20039;-81
2022/05/23 12:44:36;;;;;;;3.95;1.63;;;;;;;27.26;45.61;98813.25;5088953;28;20446;-81
2022/05/23 12:47:22;;;;;;;3.22;1.27;;;;;;;27.25;45.52;98808.91;5087121;28;20044;-83